sensor_id;sensor_type;location;lat;lon;timestamp;temperature;humidity
33067;DHT22;19428;49.024;8.366;2023-04-06T00:00:49;1.10;87.90
33067;DHT22;19428;49.024;8.366;2023-04-06T00:03:14;1.00;91.00
33067;DHT22;19428;49.024;8.366;2023-04-06T00:05:41;1.20;92.50
33067;DHT22;19428;49.024;8.366;2023-04-06T00:08:06;1.20;92.10
33067;DHT22;19428;49.024;8.366;2023-04-06T00:10:32;1.10;91.90
33067;DHT22;19428;49.024;8.366;2023-04-06T00:12:58;1.00;92.10
33067;DHT22;19428;49.024;8.366;2023-04-06T00:15:24;1.20;93.10
33067;DHT22;19428;49.024;8.366;2023-04-06T00:17:50;1.10;91.60
33067;DHT22;19428;49.024;8.366;2023-04-06T00:20:16;0.90;93.50
33067;DHT22;19428;49.024;8.366;2023-04-06T00:22:42;0.80;95.00
33067;DHT22;19428;49.024;8.366;2023-04-06T00:25:08;0.90;96.20
33067;DHT22;19428;49.024;8.366;2023-04-06T00:27:33;1.00;96.50
33067;DHT22;19428;49.024;8.366;2023-04-06T00:29:59;0.80;94.70
33067;DHT22;19428;49.024;8.366;2023-04-06T00:32:24;0.70;96.80
33067;DHT22;19428;49.024;8.366;2023-04-06T00:34:50;0.50;98.60
33067;DHT22;19428;49.024;8.366;2023-04-06T00:37:15;0.70;99.90
33067;DHT22;19428;49.024;8.366;2023-04-06T00:39:41;0.70;99.90
33067;DHT22;19428;49.024;8.366;2023-04-06T00:42:12;0.80;99.90
33067;DHT22;19428;49.024;8.366;2023-04-06T00:44:42;0.60;99.20
33067;DHT22;19428;49.024;8.366;2023-04-06T00:47:07;0.80;99.80
33067;DHT22;19428;49.024;8.366;2023-04-06T00:49:33;0.50;99.60
33067;DHT22;19428;49.024;8.366;2023-04-06T00:52:00;0.50;99.90
33067;DHT22;19428;49.024;8.366;2023-04-06T00:54:26;0.70;99.90
33067;DHT22;19428;49.024;8.366;2023-04-06T00:56:52;0.80;99.90
33067;DHT22;19428;49.024;8.366;2023-04-06T00:59:18;1.00;99.90
33067;DHT22;19428;49.024;8.366;2023-04-06T01:01:44;1.10;99.90
33067;DHT22;19428;49.024;8.366;2023-04-06T01:04:09;1.10;99.90
33067;DHT22;19428;49.024;8.366;2023-04-06T01:06:35;1.10;99.90
33067;DHT22;19428;49.024;8.366;2023-04-06T01:09:01;0.80;99.90
33067;DHT22;19428;49.024;8.366;2023-04-06T01:11:27;0.60;99.90
33067;DHT22;19428;49.024;8.366;2023-04-06T01:13:53;0.40;99.90
33067;DHT22;19428;49.024;8.366;2023-04-06T01:16:18;0.60;99.90
33067;DHT22;19428;49.024;8.366;2023-04-06T01:18:44;0.60;99.90
33067;DHT22;19428;49.024;8.366;2023-04-06T01:21:10;0.50;99.90
33067;DHT22;19428;49.024;8.366;2023-04-06T01:23:43;1.00;99.90
33067;DHT22;19428;49.024;8.366;2023-04-06T01:26:09;1.00;99.90
33067;DHT22;19428;49.024;8.366;2023-04-06T01:28:34;1.20;99.90
33067;DHT22;19428;49.024;8.366;2023-04-06T01:31:00;1.20;99.90
33067;DHT22;19428;49.024;8.366;2023-04-06T01:33:25;0.60;99.90
33067;DHT22;19428;49.024;8.366;2023-04-06T01:35:51;0.50;99.90
33067;DHT22;19428;49.024;8.366;2023-04-06T01:38:17;0.50;99.90
33067;DHT22;19428;49.024;8.366;2023-04-06T01:40:42;0.30;99.90
33067;DHT22;19428;49.024;8.366;2023-04-06T01:43:08;0.30;99.90
33067;DHT22;19428;49.024;8.366;2023-04-06T01:45:33;0.40;99.90
33067;DHT22;19428;49.024;8.366;2023-04-06T01:47:59;0.70;99.90
33067;DHT22;19428;49.024;8.366;2023-04-06T01:50:24;0.80;99.90
33067;DHT22;19428;49.024;8.366;2023-04-06T01:52:50;0.60;99.90
33067;DHT22;19428;49.024;8.366;2023-04-06T01:55:15;0.50;99.90
33067;DHT22;19428;49.024;8.366;2023-04-06T01:57:41;0.50;99.90
33067;DHT22;19428;49.024;8.366;2023-04-06T02:00:07;0.50;99.90
33067;DHT22;19428;49.024;8.366;2023-04-06T02:02:33;0.40;99.90
33067;DHT22;19428;49.024;8.366;2023-04-06T02:04:58;0.30;99.90
33067;DHT22;19428;49.024;8.366;2023-04-06T02:07:24;0.10;99.90
33067;DHT22;19428;49.024;8.366;2023-04-06T02:09:53;0.00;99.90
33067;DHT22;19428;49.024;8.366;2023-04-06T02:12:18;0.00;99.90
33067;DHT22;19428;49.024;8.366;2023-04-06T02:14:44;-0.10;99.90
33067;DHT22;19428;49.024;8.366;2023-04-06T02:17:10;-0.10;99.90
33067;DHT22;19428;49.024;8.366;2023-04-06T02:19:35;0.00;99.90
33067;DHT22;19428;49.024;8.366;2023-04-06T02:22:01;0.20;99.90
33067;DHT22;19428;49.024;8.366;2023-04-06T02:24:27;0.40;99.90
33067;DHT22;19428;49.024;8.366;2023-04-06T02:26:52;0.20;99.90
33067;DHT22;19428;49.024;8.366;2023-04-06T02:29:18;0.00;99.90
33067;DHT22;19428;49.024;8.366;2023-04-06T02:31:43;0.00;99.90
33067;DHT22;19428;49.024;8.366;2023-04-06T02:34:09;-0.10;99.90
33067;DHT22;19428;49.024;8.366;2023-04-06T02:36:37;-0.20;99.90
33067;DHT22;19428;49.024;8.366;2023-04-06T02:39:02;-0.10;99.90
33067;DHT22;19428;49.024;8.366;2023-04-06T02:41:28;-0.20;99.90
33067;DHT22;19428;49.024;8.366;2023-04-06T02:43:54;-0.20;99.90
33067;DHT22;19428;49.024;8.366;2023-04-06T02:46:19;0.00;99.90
33067;DHT22;19428;49.024;8.366;2023-04-06T02:48:45;0.00;99.90
33067;DHT22;19428;49.024;8.366;2023-04-06T02:51:11;0.00;99.90
33067;DHT22;19428;49.024;8.366;2023-04-06T02:53:36;0.00;99.90
33067;DHT22;19428;49.024;8.366;2023-04-06T02:56:02;0.30;99.90
33067;DHT22;19428;49.024;8.366;2023-04-06T02:58:27;0.40;99.90
33067;DHT22;19428;49.024;8.366;2023-04-06T03:00:53;0.50;99.90
33067;DHT22;19428;49.024;8.366;2023-04-06T03:03:18;0.20;99.90
33067;DHT22;19428;49.024;8.366;2023-04-06T03:05:44;0.00;99.90
33067;DHT22;19428;49.024;8.366;2023-04-06T03:08:10;-0.10;99.90
33067;DHT22;19428;49.024;8.366;2023-04-06T03:10:35;-0.30;99.90
33067;DHT22;19428;49.024;8.366;2023-04-06T03:13:01;-0.30;99.90
33067;DHT22;19428;49.024;8.366;2023-04-06T03:15:26;-0.20;99.90
33067;DHT22;19428;49.024;8.366;2023-04-06T03:17:52;-0.20;99.90
33067;DHT22;19428;49.024;8.366;2023-04-06T03:20:17;-0.20;99.90
33067;DHT22;19428;49.024;8.366;2023-04-06T03:22:43;-0.20;99.90
33067;DHT22;19428;49.024;8.366;2023-04-06T03:25:09;-0.20;99.90
33067;DHT22;19428;49.024;8.366;2023-04-06T03:27:34;-0.20;99.90
33067;DHT22;19428;49.024;8.366;2023-04-06T03:30:00;-0.40;99.90
33067;DHT22;19428;49.024;8.366;2023-04-06T03:32:25;-0.40;99.90
33067;DHT22;19428;49.024;8.366;2023-04-06T03:34:51;-0.40;99.90
33067;DHT22;19428;49.024;8.366;2023-04-06T03:37:16;-0.50;99.90
33067;DHT22;19428;49.024;8.366;2023-04-06T03:39:42;-0.50;99.90
33067;DHT22;19428;49.024;8.366;2023-04-06T03:42:07;-0.40;99.90
33067;DHT22;19428;49.024;8.366;2023-04-06T03:44:34;-0.40;99.90
33067;DHT22;19428;49.024;8.366;2023-04-06T03:46:59;-0.30;99.90
33067;DHT22;19428;49.024;8.366;2023-04-06T03:49:25;-0.40;99.90
33067;DHT22;19428;49.024;8.366;2023-04-06T03:51:51;-0.40;99.90
33067;DHT22;19428;49.024;8.366;2023-04-06T03:54:16;-0.50;99.90
33067;DHT22;19428;49.024;8.366;2023-04-06T03:56:42;-0.40;99.90
33067;DHT22;19428;49.024;8.366;2023-04-06T03:59:07;-0.50;99.90
33067;DHT22;19428;49.024;8.366;2023-04-06T04:01:33;-0.70;99.90
33067;DHT22;19428;49.024;8.366;2023-04-06T04:03:58;-0.70;99.90
33067;DHT22;19428;49.024;8.366;2023-04-06T04:06:24;-0.60;99.90
33067;DHT22;19428;49.024;8.366;2023-04-06T04:08:50;-0.70;99.90
33067;DHT22;19428;49.024;8.366;2023-04-06T04:11:16;-0.70;99.90
33067;DHT22;19428;49.024;8.366;2023-04-06T04:13:41;-0.80;99.90
33067;DHT22;19428;49.024;8.366;2023-04-06T04:16:07;-0.80;99.90
33067;DHT22;19428;49.024;8.366;2023-04-06T04:18:32;-0.80;99.90
33067;DHT22;19428;49.024;8.366;2023-04-06T04:20:58;-0.70;99.90
33067;DHT22;19428;49.024;8.366;2023-04-06T04:23:24;-0.70;99.90
33067;DHT22;19428;49.024;8.366;2023-04-06T04:25:49;-0.60;99.90
33067;DHT22;19428;49.024;8.366;2023-04-06T04:28:16;-0.60;99.90
33067;DHT22;19428;49.024;8.366;2023-04-06T04:30:41;-0.50;99.90
33067;DHT22;19428;49.024;8.366;2023-04-06T04:33:07;-0.60;99.90
33067;DHT22;19428;49.024;8.366;2023-04-06T04:35:33;-0.80;99.90
33067;DHT22;19428;49.024;8.366;2023-04-06T04:37:58;-0.80;99.90
33067;DHT22;19428;49.024;8.366;2023-04-06T04:40:24;-0.70;99.90
33067;DHT22;19428;49.024;8.366;2023-04-06T04:42:49;-0.80;99.90
33067;DHT22;19428;49.024;8.366;2023-04-06T04:45:16;-0.70;99.90
33067;DHT22;19428;49.024;8.366;2023-04-06T04:47:42;-0.70;99.90
33067;DHT22;19428;49.024;8.366;2023-04-06T04:50:07;-0.70;99.90
33067;DHT22;19428;49.024;8.366;2023-04-06T04:52:33;-0.80;99.90
33067;DHT22;19428;49.024;8.366;2023-04-06T04:54:59;-0.70;99.90
33067;DHT22;19428;49.024;8.366;2023-04-06T04:57:24;-1.00;99.90
33067;DHT22;19428;49.024;8.366;2023-04-06T04:59:50;-0.70;99.90
33067;DHT22;19428;49.024;8.366;2023-04-06T05:02:16;-0.70;99.90
33067;DHT22;19428;49.024;8.366;2023-04-06T05:04:42;-0.70;99.90
33067;DHT22;19428;49.024;8.366;2023-04-06T05:07:09;-0.90;99.90
33067;DHT22;19428;49.024;8.366;2023-04-06T05:09:34;-0.80;99.90
33067;DHT22;19428;49.024;8.366;2023-04-06T05:12:00;-0.70;99.90
33067;DHT22;19428;49.024;8.366;2023-04-06T05:14:27;-0.60;99.90
33067;DHT22;19428;49.024;8.366;2023-04-06T05:16:53;-0.60;99.90
33067;DHT22;19428;49.024;8.366;2023-04-06T05:19:19;-0.60;99.90
33067;DHT22;19428;49.024;8.366;2023-04-06T05:21:45;-0.50;99.90
33067;DHT22;19428;49.024;8.366;2023-04-06T05:24:10;-0.40;99.90
33067;DHT22;19428;49.024;8.366;2023-04-06T05:26:36;-0.40;99.90
33067;DHT22;19428;49.024;8.366;2023-04-06T05:29:02;-0.30;99.90
33067;DHT22;19428;49.024;8.366;2023-04-06T05:31:27;-0.20;99.90
33067;DHT22;19428;49.024;8.366;2023-04-06T05:33:53;0.00;99.90
33067;DHT22;19428;49.024;8.366;2023-04-06T05:36:18;0.20;99.90
33067;DHT22;19428;49.024;8.366;2023-04-06T05:38:44;0.50;99.90
33067;DHT22;19428;49.024;8.366;2023-04-06T05:41:10;0.70;99.90
33067;DHT22;19428;49.024;8.366;2023-04-06T05:43:36;0.90;99.90
33067;DHT22;19428;49.024;8.366;2023-04-06T05:46:02;1.20;99.90
33067;DHT22;19428;49.024;8.366;2023-04-06T05:48:27;1.40;99.90
33067;DHT22;19428;49.024;8.366;2023-04-06T05:50:53;1.50;99.90
33067;DHT22;19428;49.024;8.366;2023-04-06T05:53:18;1.60;99.90
33067;DHT22;19428;49.024;8.366;2023-04-06T05:55:46;1.90;99.90
33067;DHT22;19428;49.024;8.366;2023-04-06T05:58:12;2.10;99.90
33067;DHT22;19428;49.024;8.366;2023-04-06T06:00:38;2.10;99.90
33067;DHT22;19428;49.024;8.366;2023-04-06T06:03:03;2.20;99.90
33067;DHT22;19428;49.024;8.366;2023-04-06T06:05:31;2.40;99.90
33067;DHT22;19428;49.024;8.366;2023-04-06T06:07:56;2.40;99.90
33067;DHT22;19428;49.024;8.366;2023-04-06T06:10:22;2.40;99.90
33067;DHT22;19428;49.024;8.366;2023-04-06T06:12:47;2.40;99.90
33067;DHT22;19428;49.024;8.366;2023-04-06T06:15:13;2.30;99.90
33067;DHT22;19428;49.024;8.366;2023-04-06T06:17:39;2.40;99.90
33067;DHT22;19428;49.024;8.366;2023-04-06T06:20:06;2.40;99.90
33067;DHT22;19428;49.024;8.366;2023-04-06T06:22:32;2.60;99.90
33067;DHT22;19428;49.024;8.366;2023-04-06T06:24:58;2.70;99.90
33067;DHT22;19428;49.024;8.366;2023-04-06T06:27:23;2.80;99.90
33067;DHT22;19428;49.024;8.366;2023-04-06T06:29:49;2.90;99.80
33067;DHT22;19428;49.024;8.366;2023-04-06T06:32:15;2.90;99.10
33067;DHT22;19428;49.024;8.366;2023-04-06T06:34:41;3.00;98.70
33067;DHT22;19428;49.024;8.366;2023-04-06T06:37:06;3.00;98.80
33067;DHT22;19428;49.024;8.366;2023-04-06T06:39:32;3.20;98.50
33067;DHT22;19428;49.024;8.366;2023-04-06T06:41:58;3.20;98.10
33067;DHT22;19428;49.024;8.366;2023-04-06T06:44:26;3.30;98.30
33067;DHT22;19428;49.024;8.366;2023-04-06T06:46:51;3.30;97.00
33067;DHT22;19428;49.024;8.366;2023-04-06T06:49:17;3.40;96.60
33067;DHT22;19428;49.024;8.366;2023-04-06T06:51:43;3.50;96.20
33067;DHT22;19428;49.024;8.366;2023-04-06T06:54:09;3.60;96.00
33067;DHT22;19428;49.024;8.366;2023-04-06T06:56:35;3.70;95.80
33067;DHT22;19428;49.024;8.366;2023-04-06T06:59:03;3.70;95.20
33067;DHT22;19428;49.024;8.366;2023-04-06T07:01:29;3.70;94.50
33067;DHT22;19428;49.024;8.366;2023-04-06T07:03:55;3.80;93.90
33067;DHT22;19428;49.024;8.366;2023-04-06T07:06:20;3.90;93.10
33067;DHT22;19428;49.024;8.366;2023-04-06T07:08:46;3.90;93.00
33067;DHT22;19428;49.024;8.366;2023-04-06T07:11:12;4.00;92.90
33067;DHT22;19428;49.024;8.366;2023-04-06T07:13:37;4.10;92.60
33067;DHT22;19428;49.024;8.366;2023-04-06T07:16:03;4.20;92.00
33067;DHT22;19428;49.024;8.366;2023-04-06T07:18:29;4.30;89.20
33067;DHT22;19428;49.024;8.366;2023-04-06T07:20:55;4.40;89.20
33067;DHT22;19428;49.024;8.366;2023-04-06T07:23:20;4.40;86.20
33067;DHT22;19428;49.024;8.366;2023-04-06T07:25:46;4.50;87.70
33067;DHT22;19428;49.024;8.366;2023-04-06T07:28:11;4.60;85.50
33067;DHT22;19428;49.024;8.366;2023-04-06T07:30:38;4.70;85.00
33067;DHT22;19428;49.024;8.366;2023-04-06T07:33:04;4.80;86.00
33067;DHT22;19428;49.024;8.366;2023-04-06T07:35:30;4.80;84.70
33067;DHT22;19428;49.024;8.366;2023-04-06T07:37:56;4.90;85.70
33067;DHT22;19428;49.024;8.366;2023-04-06T07:40:22;5.10;84.80
33067;DHT22;19428;49.024;8.366;2023-04-06T07:42:47;5.10;82.80
33067;DHT22;19428;49.024;8.366;2023-04-06T07:45:14;5.20;83.20
33067;DHT22;19428;49.024;8.366;2023-04-06T07:47:40;5.20;81.30
33067;DHT22;19428;49.024;8.366;2023-04-06T07:50:06;5.30;81.00
33067;DHT22;19428;49.024;8.366;2023-04-06T07:52:32;5.40;79.70
33067;DHT22;19428;49.024;8.366;2023-04-06T07:54:58;5.50;77.90
33067;DHT22;19428;49.024;8.366;2023-04-06T07:57:24;5.60;76.80
33067;DHT22;19428;49.024;8.366;2023-04-06T07:59:50;5.60;74.70
33067;DHT22;19428;49.024;8.366;2023-04-06T08:02:16;5.80;75.30
33067;DHT22;19428;49.024;8.366;2023-04-06T08:04:42;6.00;73.80
33067;DHT22;19428;49.024;8.366;2023-04-06T08:07:08;6.10;73.80
33067;DHT22;19428;49.024;8.366;2023-04-06T08:09:34;6.10;72.30
33067;DHT22;19428;49.024;8.366;2023-04-06T08:11:59;6.00;68.60
33067;DHT22;19428;49.024;8.366;2023-04-06T08:14:25;6.30;69.40
33067;DHT22;19428;49.024;8.366;2023-04-06T08:16:50;6.30;69.30
33067;DHT22;19428;49.024;8.366;2023-04-06T08:19:16;6.40;68.70
33067;DHT22;19428;49.024;8.366;2023-04-06T08:21:44;6.60;66.50
33067;DHT22;19428;49.024;8.366;2023-04-06T08:24:11;6.60;66.00
33067;DHT22;19428;49.024;8.366;2023-04-06T08:26:37;6.70;64.40
33067;DHT22;19428;49.024;8.366;2023-04-06T08:29:03;7.00;65.90
33067;DHT22;19428;49.024;8.366;2023-04-06T08:31:30;7.00;60.10
33067;DHT22;19428;49.024;8.366;2023-04-06T08:33:55;7.00;59.80
33067;DHT22;19428;49.024;8.366;2023-04-06T08:36:21;7.30;59.40
33067;DHT22;19428;49.024;8.366;2023-04-06T08:38:48;7.30;57.80
33067;DHT22;19428;49.024;8.366;2023-04-06T08:41:15;7.40;59.30
33067;DHT22;19428;49.024;8.366;2023-04-06T08:44:01;7.50;56.40
33067;DHT22;19428;49.024;8.366;2023-04-06T08:46:29;7.70;56.60
33067;DHT22;19428;49.024;8.366;2023-04-06T08:49:00;7.80;55.20
33067;DHT22;19428;49.024;8.366;2023-04-06T08:51:27;7.80;53.90
33067;DHT22;19428;49.024;8.366;2023-04-06T08:53:55;8.00;53.60
33067;DHT22;19428;49.024;8.366;2023-04-06T08:56:26;8.10;51.30
33067;DHT22;19428;49.024;8.366;2023-04-06T08:58:53;7.90;52.10
33067;DHT22;19428;49.024;8.366;2023-04-06T09:01:22;8.00;50.60
33067;DHT22;19428;49.024;8.366;2023-04-06T09:03:49;8.10;51.30
33067;DHT22;19428;49.024;8.366;2023-04-06T09:06:16;8.30;51.40
33067;DHT22;19428;49.024;8.366;2023-04-06T09:08:42;8.40;51.40
33067;DHT22;19428;49.024;8.366;2023-04-06T09:11:08;8.60;50.80
33067;DHT22;19428;49.024;8.366;2023-04-06T09:13:51;8.70;52.60
33067;DHT22;19428;49.024;8.366;2023-04-06T09:16:17;8.80;48.40
33067;DHT22;19428;49.024;8.366;2023-04-06T09:18:43;8.90;42.80
33067;DHT22;19428;49.024;8.366;2023-04-06T09:21:10;9.20;42.50
33067;DHT22;19428;49.024;8.366;2023-04-06T09:23:36;9.20;41.10
33067;DHT22;19428;49.024;8.366;2023-04-06T09:31:12;9.30;41.00
33067;DHT22;19428;49.024;8.366;2023-04-06T09:33:43;9.50;38.50
33067;DHT22;19428;49.024;8.366;2023-04-06T09:36:09;9.50;37.30
33067;DHT22;19428;49.024;8.366;2023-04-06T09:38:55;9.60;34.70
33067;DHT22;19428;49.024;8.366;2023-04-06T09:44:08;9.70;36.80
33067;DHT22;19428;49.024;8.366;2023-04-06T09:46:44;9.90;38.00
33067;DHT22;19428;49.024;8.366;2023-04-06T09:49:11;9.90;33.20
33067;DHT22;19428;49.024;8.366;2023-04-06T09:51:39;10.30;34.40
33067;DHT22;19428;49.024;8.366;2023-04-06T09:54:06;10.20;34.20
33067;DHT22;19428;49.024;8.366;2023-04-06T09:57:07;10.30;31.80
33067;DHT22;19428;49.024;8.366;2023-04-06T09:59:56;10.50;36.50
33067;DHT22;19428;49.024;8.366;2023-04-06T10:05:05;10.70;30.30
33067;DHT22;19428;49.024;8.366;2023-04-06T10:07:33;10.60;26.80
33067;DHT22;19428;49.024;8.366;2023-04-06T10:09:59;10.60;27.10
33067;DHT22;19428;49.024;8.366;2023-04-06T10:12:25;10.50;25.00
33067;DHT22;19428;49.024;8.366;2023-04-06T10:14:51;10.70;27.20
33067;DHT22;19428;49.024;8.366;2023-04-06T10:17:17;11.00;27.70
33067;DHT22;19428;49.024;8.366;2023-04-06T10:20:02;11.20;25.70
33067;DHT22;19428;49.024;8.366;2023-04-06T10:22:59;11.00;24.80
33067;DHT22;19428;49.024;8.366;2023-04-06T10:25:34;11.20;21.10
33067;DHT22;19428;49.024;8.366;2023-04-06T10:28:07;11.10;22.00
33067;DHT22;19428;49.024;8.366;2023-04-06T10:30:34;11.10;20.30
33067;DHT22;19428;49.024;8.366;2023-04-06T10:33:01;11.20;21.80
33067;DHT22;19428;49.024;8.366;2023-04-06T10:35:37;11.40;23.60
33067;DHT22;19428;49.024;8.366;2023-04-06T10:38:04;11.40;21.70
33067;DHT22;19428;49.024;8.366;2023-04-06T10:40:30;11.50;20.10
33067;DHT22;19428;49.024;8.366;2023-04-06T10:43:11;11.30;17.20
33067;DHT22;19428;49.024;8.366;2023-04-06T10:45:37;11.40;16.70
33067;DHT22;19428;49.024;8.366;2023-04-06T10:48:16;11.60;18.80
33067;DHT22;19428;49.024;8.366;2023-04-06T10:50:48;11.80;19.10
33067;DHT22;19428;49.024;8.366;2023-04-06T10:53:25;12.00;16.30
33067;DHT22;19428;49.024;8.366;2023-04-06T10:55:52;12.00;17.10
33067;DHT22;19428;49.024;8.366;2023-04-06T10:58:18;12.50;17.30
33067;DHT22;19428;49.024;8.366;2023-04-06T11:00:48;12.30;12.20
33067;DHT22;19428;49.024;8.366;2023-04-06T11:03:15;12.50;14.20
33067;DHT22;19428;49.024;8.366;2023-04-06T11:05:47;12.40;14.00
33067;DHT22;19428;49.024;8.366;2023-04-06T11:08:26;12.30;12.30
33067;DHT22;19428;49.024;8.366;2023-04-06T11:11:03;12.70;11.60
33067;DHT22;19428;49.024;8.366;2023-04-06T11:13:45;13.00;13.00
33067;DHT22;19428;49.024;8.366;2023-04-06T11:16:27;12.80;6.30
33067;DHT22;19428;49.024;8.366;2023-04-06T11:18:58;12.80;8.10
33067;DHT22;19428;49.024;8.366;2023-04-06T11:21:33;12.50;4.30
33067;DHT22;19428;49.024;8.366;2023-04-06T11:24:13;12.70;5.60
33067;DHT22;19428;49.024;8.366;2023-04-06T11:26:48;12.90;5.80
33067;DHT22;19428;49.024;8.366;2023-04-06T11:29:16;12.90;5.70
33067;DHT22;19428;49.024;8.366;2023-04-06T11:31:45;13.00;6.30
33067;DHT22;19428;49.024;8.366;2023-04-06T11:34:18;13.20;7.00
33067;DHT22;19428;49.024;8.366;2023-04-06T11:36:45;12.90;3.30
33067;DHT22;19428;49.024;8.366;2023-04-06T11:39:13;13.10;4.30
33067;DHT22;19428;49.024;8.366;2023-04-06T11:41:38;13.20;3.00
33067;DHT22;19428;49.024;8.366;2023-04-06T11:44:05;13.00;2.20
33067;DHT22;19428;49.024;8.366;2023-04-06T11:46:31;12.90;1.10
33067;DHT22;19428;49.024;8.366;2023-04-06T11:49:02;13.20;1.00
33067;DHT22;19428;49.024;8.366;2023-04-06T11:51:28;13.40;1.00
33067;DHT22;19428;49.024;8.366;2023-04-06T11:53:54;13.80;1.00
33067;DHT22;19428;49.024;8.366;2023-04-06T11:56:28;13.50;1.00
33067;DHT22;19428;49.024;8.366;2023-04-06T11:58:56;13.80;1.00
33067;DHT22;19428;49.024;8.366;2023-04-06T12:01:22;13.70;1.00
33067;DHT22;19428;49.024;8.366;2023-04-06T12:03:49;13.80;1.00
33067;DHT22;19428;49.024;8.366;2023-04-06T12:06:15;13.40;1.00
33067;DHT22;19428;49.024;8.366;2023-04-06T12:08:40;13.60;1.00
33067;DHT22;19428;49.024;8.366;2023-04-06T12:11:06;13.70;1.00
33067;DHT22;19428;49.024;8.366;2023-04-06T12:13:32;13.70;1.00
33067;DHT22;19428;49.024;8.366;2023-04-06T12:15:57;14.00;1.00
33067;DHT22;19428;49.024;8.366;2023-04-06T12:18:23;14.00;1.00
33067;DHT22;19428;49.024;8.366;2023-04-06T12:20:49;14.80;1.00
33067;DHT22;19428;49.024;8.366;2023-04-06T12:23:14;16.30;1.00
33067;DHT22;19428;49.024;8.366;2023-04-06T12:25:41;14.90;1.00
33067;DHT22;19428;49.024;8.366;2023-04-06T12:28:07;14.30;1.00
33067;DHT22;19428;49.024;8.366;2023-04-06T12:30:34;14.30;1.00
33067;DHT22;19428;49.024;8.366;2023-04-06T12:33:00;14.20;1.00
33067;DHT22;19428;49.024;8.366;2023-04-06T12:35:26;14.50;1.00
33067;DHT22;19428;49.024;8.366;2023-04-06T12:37:52;13.90;1.00
33067;DHT22;19428;49.024;8.366;2023-04-06T12:40:18;14.30;1.00
33067;DHT22;19428;49.024;8.366;2023-04-06T12:42:43;13.80;1.00
33067;DHT22;19428;49.024;8.366;2023-04-06T12:45:11;14.20;1.00
33067;DHT22;19428;49.024;8.366;2023-04-06T12:47:37;14.40;1.00
33067;DHT22;19428;49.024;8.366;2023-04-06T12:50:05;14.90;1.00
33067;DHT22;19428;49.024;8.366;2023-04-06T12:52:31;14.80;1.00
33067;DHT22;19428;49.024;8.366;2023-04-06T12:55:00;14.50;1.00
33067;DHT22;19428;49.024;8.366;2023-04-06T12:57:26;14.80;1.00
33067;DHT22;19428;49.024;8.366;2023-04-06T12:59:51;14.90;1.00
33067;DHT22;19428;49.024;8.366;2023-04-06T13:02:18;14.00;1.00
33067;DHT22;19428;49.024;8.366;2023-04-06T13:04:45;14.10;1.00
33067;DHT22;19428;49.024;8.366;2023-04-06T13:07:11;14.40;1.00
33067;DHT22;19428;49.024;8.366;2023-04-06T13:09:36;14.10;1.00
33067;DHT22;19428;49.024;8.366;2023-04-06T13:12:02;14.20;1.00
33067;DHT22;19428;49.024;8.366;2023-04-06T13:14:28;14.90;1.00
33067;DHT22;19428;49.024;8.366;2023-04-06T13:16:53;14.20;1.00
33067;DHT22;19428;49.024;8.366;2023-04-06T13:19:19;14.20;1.00
33067;DHT22;19428;49.024;8.366;2023-04-06T13:21:45;14.20;1.00
33067;DHT22;19428;49.024;8.366;2023-04-06T13:24:10;14.20;1.00
33067;DHT22;19428;49.024;8.366;2023-04-06T13:26:36;14.00;1.00
33067;DHT22;19428;49.024;8.366;2023-04-06T13:29:01;13.90;1.00
33067;DHT22;19428;49.024;8.366;2023-04-06T13:31:28;14.50;1.00
33067;DHT22;19428;49.024;8.366;2023-04-06T13:33:54;14.70;1.00
33067;DHT22;19428;49.024;8.366;2023-04-06T13:36:19;14.70;1.00
33067;DHT22;19428;49.024;8.366;2023-04-06T13:38:45;14.70;1.00
33067;DHT22;19428;49.024;8.366;2023-04-06T13:41:19;14.70;1.00
33067;DHT22;19428;49.024;8.366;2023-04-06T13:43:46;14.40;1.00
33067;DHT22;19428;49.024;8.366;2023-04-06T13:46:12;14.00;1.00
33067;DHT22;19428;49.024;8.366;2023-04-06T13:48:37;14.10;1.00
33067;DHT22;19428;49.024;8.366;2023-04-06T13:51:13;14.00;1.00
33067;DHT22;19428;49.024;8.366;2023-04-06T13:53:39;14.00;1.00
33067;DHT22;19428;49.024;8.366;2023-04-06T13:56:06;14.20;1.00
33067;DHT22;19428;49.024;8.366;2023-04-06T13:58:32;14.30;1.00
33067;DHT22;19428;49.024;8.366;2023-04-06T14:01:05;14.50;1.00
33067;DHT22;19428;49.024;8.366;2023-04-06T14:03:32;14.40;1.00
33067;DHT22;19428;49.024;8.366;2023-04-06T14:05:58;14.50;1.00
33067;DHT22;19428;49.024;8.366;2023-04-06T14:08:23;14.30;1.00
33067;DHT22;19428;49.024;8.366;2023-04-06T14:10:49;14.40;1.00
33067;DHT22;19428;49.024;8.366;2023-04-06T14:13:14;14.20;1.00
33067;DHT22;19428;49.024;8.366;2023-04-06T14:15:40;14.50;1.00
33067;DHT22;19428;49.024;8.366;2023-04-06T14:18:08;14.70;1.00
33067;DHT22;19428;49.024;8.366;2023-04-06T14:20:34;14.60;1.00
33067;DHT22;19428;49.024;8.366;2023-04-06T14:23:00;14.60;1.00
33067;DHT22;19428;49.024;8.366;2023-04-06T14:25:27;14.40;1.00
33067;DHT22;19428;49.024;8.366;2023-04-06T14:27:53;14.30;1.00
33067;DHT22;19428;49.024;8.366;2023-04-06T14:30:18;14.20;1.00
33067;DHT22;19428;49.024;8.366;2023-04-06T14:32:45;13.80;1.00
33067;DHT22;19428;49.024;8.366;2023-04-06T14:35:11;14.00;1.00
33067;DHT22;19428;49.024;8.366;2023-04-06T14:37:36;14.10;1.00
33067;DHT22;19428;49.024;8.366;2023-04-06T14:40:03;14.40;1.00
33067;DHT22;19428;49.024;8.366;2023-04-06T14:42:29;14.10;1.00
33067;DHT22;19428;49.024;8.366;2023-04-06T14:44:54;14.00;1.00
33067;DHT22;19428;49.024;8.366;2023-04-06T14:47:20;14.10;1.00
33067;DHT22;19428;49.024;8.366;2023-04-06T14:49:49;14.00;1.00
33067;DHT22;19428;49.024;8.366;2023-04-06T14:52:15;14.20;1.00
33067;DHT22;19428;49.024;8.366;2023-04-06T14:54:41;14.00;1.00
33067;DHT22;19428;49.024;8.366;2023-04-06T14:57:06;14.10;1.00
33067;DHT22;19428;49.024;8.366;2023-04-06T14:59:32;14.10;1.00
33067;DHT22;19428;49.024;8.366;2023-04-06T15:01:58;14.00;1.00
33067;DHT22;19428;49.024;8.366;2023-04-06T15:04:25;14.00;1.00
33067;DHT22;19428;49.024;8.366;2023-04-06T15:06:51;14.00;1.00
33067;DHT22;19428;49.024;8.366;2023-04-06T15:09:16;13.90;1.00
33067;DHT22;19428;49.024;8.366;2023-04-06T15:11:42;13.80;1.00
33067;DHT22;19428;49.024;8.366;2023-04-06T15:14:07;13.70;1.00
33067;DHT22;19428;49.024;8.366;2023-04-06T15:16:33;13.70;1.00
33067;DHT22;19428;49.024;8.366;2023-04-06T15:18:59;13.80;1.00
33067;DHT22;19428;49.024;8.366;2023-04-06T15:21:25;13.70;1.00
33067;DHT22;19428;49.024;8.366;2023-04-06T15:23:52;13.90;1.00
33067;DHT22;19428;49.024;8.366;2023-04-06T15:26:17;13.80;1.00
33067;DHT22;19428;49.024;8.366;2023-04-06T15:28:43;13.80;1.00
33067;DHT22;19428;49.024;8.366;2023-04-06T15:31:19;13.70;1.00
33067;DHT22;19428;49.024;8.366;2023-04-06T15:33:48;13.50;1.00
33067;DHT22;19428;49.024;8.366;2023-04-06T15:36:26;13.60;1.00
33067;DHT22;19428;49.024;8.366;2023-04-06T15:38:54;13.60;1.00
33067;DHT22;19428;49.024;8.366;2023-04-06T15:41:20;13.60;1.00
33067;DHT22;19428;49.024;8.366;2023-04-06T15:43:45;13.60;1.00
33067;DHT22;19428;49.024;8.366;2023-04-06T15:46:11;13.60;1.00
33067;DHT22;19428;49.024;8.366;2023-04-06T15:48:37;13.50;1.00
33067;DHT22;19428;49.024;8.366;2023-04-06T15:51:03;13.50;1.00